createdAt,value
2022-11-09T00:00:20.975Z,10.90
2022-11-09T00:05:28.979Z,10.80
2022-11-09T00:10:40.350Z,10.80
2022-11-09T00:16:01.285Z,10.90
2022-11-09T00:21:24.040Z,11.10
2022-11-09T00:26:25.947Z,11.00
2022-11-09T00:31:29.278Z,10.80
2022-11-09T00:36:31.094Z,10.70
2022-11-09T00:41:33.111Z,10.70
2022-11-09T00:46:39.504Z,10.70
2022-11-09T00:57:15.685Z,10.80
2022-11-09T01:03:24.405Z,10.80
2022-11-09T01:24:29.579Z,11.00
2022-11-09T11:06:54.009Z,14.10
2022-11-09T11:12:14.386Z,14.30
2022-11-09T11:17:25.348Z,14.30
2022-11-09T11:22:30.554Z,14.30
2022-11-09T11:27:35.387Z,14.20
2022-11-09T11:32:37.378Z,14.10
2022-11-09T11:38:09.475Z,14.10
2022-11-09T11:43:46.195Z,14.30
2022-11-09T11:49:12.859Z,14.50
2022-11-09T12:00:27.578Z,14.30
2022-11-09T12:05:54.826Z,14.30
2022-11-09T12:11:12.858Z,14.30
2022-11-09T12:16:40.155Z,14.20
2022-11-09T12:22:03.680Z,14.40
2022-11-09T12:53:35.294Z,14.80
2022-11-09T12:58:39.989Z,14.60
2022-11-09T13:03:56.193Z,14.50
2022-11-09T13:09:02.184Z,14.40
2022-11-09T13:14:35.366Z,14.30
2022-11-09T13:19:50.881Z,14.40
2022-11-09T13:24:54.638Z,14.30
2022-11-09T13:30:01.585Z,14.40
2022-11-09T13:35:04.571Z,14.30
2022-11-09T13:40:42.446Z,14.20
2022-11-09T13:45:46.488Z,14.20
2022-11-09T13:50:56.382Z,14.00
2022-11-09T13:56:15.536Z,14.00
2022-11-09T14:01:33.019Z,13.90
2022-11-09T14:06:38.113Z,13.90
2022-11-09T14:12:20.327Z,13.80
2022-11-09T14:17:29.848Z,13.70
2022-11-09T14:22:48.093Z,13.80
2022-11-09T15:27:44.915Z,12.50
2022-11-09T16:09:56.127Z,12.50
2022-11-09T16:31:50.222Z,12.40
